Time;durP1;ratioP1;P1;durP2;ratioP2;P2;SDS_P1;SDS_P2;PMS_P1;PMS_P2;Temp;Humidity;BMP_temperature;BMP_pressure;BME280_temperature;BME280_humidity;BME280_pressure;Samples;Min_cycle;Max_cycle;Signal;HPM_P1;HPM_P2
2020/12/30 00:02:17;;;;;;;6.57;6.03;;;;;;;;;;5108794;28;20186;-49
2020/12/30 00:04:43;;;;;;;5.22;4.72;;;;;;;;;;5116898;28;20513;-49
2020/12/30 00:07:08;;;;;;;4.68;4.38;;;;;;;;;;5106379;28;20171;-49
2020/12/30 00:09:33;;;;;;;4.87;4.33;;;;;;;;;;5108102;28;20294;-50
2020/12/30 00:11:58;;;;;;;4.20;4.00;;;;;;;;;;5111640;28;20218;-49
2020/12/30 00:14:23;;;;;;;4.33;3.93;;;;;;;;;;5109028;28;20181;-50
2020/12/30 00:16:48;;;;;;;4.43;4.13;;;;;;;;;;5105491;28;20319;-50
2020/12/30 00:19:13;;;;;;;4.23;3.93;;;;;;;;;;5109428;28;20236;-50
2020/12/30 00:21:39;;;;;;;4.35;4.05;;;;;;;;;;5104196;28;20184;-49
2020/12/30 00:24:04;;;;;;;5.07;4.73;;;;;;;;;;5109216;28;20544;-50
2020/12/30 00:26:29;;;;;;;4.68;4.38;;;;;;;;;;5112569;28;20316;-50
2020/12/30 00:28:54;;;;;;;5.10;4.70;;;;;;;;;;5109640;28;20181;-50
2020/12/30 00:31:19;;;;;;;5.90;5.38;;;;;;;;;;5109036;28;20176;-49
2020/12/30 00:33:44;;;;;;;5.00;4.70;;;;;;;;;;5109938;28;20167;-49
2020/12/30 00:36:09;;;;;;;4.70;4.40;;;;;;;;;;5106378;28;20263;-51
2020/12/30 00:38:35;;;;;;;5.32;5.03;;;;;;;;;;5108616;28;20229;-50
2020/12/30 00:41:00;;;;;;;5.03;4.73;;;;;;;;;;5108601;28;20174;-50
2020/12/30 00:43:25;;;;;;;5.80;5.40;;;;;;;;;;5111040;28;20247;-50
2020/12/30 00:45:50;;;;;;;5.63;5.13;;;;;;;;;;5112157;28;20178;-51
2020/12/30 00:48:15;;;;;;;7.55;5.07;;;;;;;;;;5110627;28;20229;-50
2020/12/30 00:50:40;;;;;;;5.07;4.68;;;;;;;;;;5110206;28;20281;-50
2020/12/30 00:53:05;;;;;;;7.53;6.93;;;;;;;;;;5112593;28;20170;-51
2020/12/30 00:55:31;;;;;;;13.77;12.60;;;;;;;;;;5110500;28;20177;-50
2020/12/30 00:57:56;;;;;;;14.63;13.40;;;;;;;;;;5108940;28;20220;-50
2020/12/30 01:00:21;;;;;;;13.07;11.80;;;;;;;;;;5112907;27;20609;-51
2020/12/30 01:02:46;;;;;;;13.60;12.27;;;;;;;;;;5110192;28;20173;-49
2020/12/30 01:05:11;;;;;;;15.90;14.45;;;;;;;;;;5118372;27;20180;-50
2020/12/30 01:07:36;;;;;;;12.25;11.25;;;;;;;;;;5108437;27;20549;-50
2020/12/30 01:10:03;;;;;;;11.25;10.25;;;;;;;;;;5112593;28;20212;-50
2020/12/30 01:12:28;;;;;;;7.63;6.90;;;;;;;;;;5111116;28;20180;-49
2020/12/30 01:14:53;;;;;;;7.30;6.70;;;;;;;;;;5112245;28;20610;-51
2020/12/30 01:17:18;;;;;;;7.20;6.63;;;;;;;;;;5104803;28;20192;-50
2020/12/30 01:19:43;;;;;;;8.23;7.43;;;;;;;;;;5108333;28;20359;-50
2020/12/30 01:22:08;;;;;;;7.88;7.38;;;;;;;;;;5111149;28;20169;-51
2020/12/30 01:24:33;;;;;;;9.70;8.80;;;;;;;;;;5111578;28;20203;-51
2020/12/30 01:26:59;;;;;;;10.77;8.00;;;;;;;;;;5109170;28;20251;-50
2020/12/30 01:29:24;;;;;;;7.47;6.78;;;;;;;;;;5112667;28;20505;-50
2020/12/30 01:31:49;;;;;;;7.17;6.63;;;;;;;;;;5112371;28;20174;-50
2020/12/30 01:34:14;;;;;;;8.70;7.90;;;;;;;;;;5111589;28;20177;-51
2020/12/30 01:36:39;;;;;;;7.07;6.37;;;;;;;;;;5108673;28;20181;-51
2020/12/30 01:39:05;;;;;;;6.83;6.27;;;;;;;;;;5112435;28;20792;-49
2020/12/30 01:41:30;;;;;;;6.50;5.90;;;;;;;;;;5110871;28;20178;-51
2020/12/30 01:43:56;;;;;;;6.37;5.93;;;;;;;;;;5111689;28;20178;-49
2020/12/30 01:46:28;;;;;;;6.73;6.10;;;;;;;;;;5109817;28;20177;-49
2020/12/30 01:48:54;;;;;;;6.53;5.00;;;;;;;;;;5109212;28;20622;-50
2020/12/30 01:51:19;;;;;;;5.63;4.90;;;;;;;;;;5112100;28;20608;-50
2020/12/30 01:53:44;;;;;;;4.40;4.10;;;;;;;;;;5105209;28;20272;-50
2020/12/30 01:56:09;;;;;;;3.70;3.50;;;;;;;;;;5111901;28;20230;-50
2020/12/30 01:58:34;;;;;;;4.23;3.93;;;;;;;;;;5098708;27;20538;-50
2020/12/30 02:01:00;;;;;;;3.67;3.47;;;;;;;;;;5110962;27;20514;-50
2020/12/30 02:03:26;;;;;;;3.60;3.30;;;;;;;;;;5118928;27;20178;-50
2020/12/30 02:05:51;;;;;;;3.70;3.40;;;;;;;;;;5110717;27;20607;-50
2020/12/30 02:08:16;;;;;;;3.50;3.20;;;;;;;;;;5107000;28;20197;-51
2020/12/30 02:10:41;;;;;;;3.10;2.90;;;;;;;;;;5110152;28;20660;-51
2020/12/30 02:13:07;;;;;;;3.30;3.00;;;;;;;;;;5109915;28;20177;-50
2020/12/30 02:15:32;;;;;;;3.40;3.10;;;;;;;;;;5111086;28;20483;-49
2020/12/30 02:17:58;;;;;;;3.97;3.40;;;;;;;;;;5108327;28;20176;-51
2020/12/30 02:20:23;;;;;;;4.43;2.97;;;;;;;;;;5110360;28;20283;-51
2020/12/30 02:22:55;;;;;;;3.93;3.30;;;;;;;;;;5110484;28;20508;-51
2020/12/30 02:25:20;;;;;;;4.40;2.83;;;;;;;;;;5110444;28;20277;-52
2020/12/30 02:27:45;;;;;;;3.20;3.00;;;;;;;;;;5108947;27;20702;-51
2020/12/30 02:30:12;;;;;;;3.38;3.08;;;;;;;;;;5111158;28;20221;-50
2020/12/30 02:32:37;;;;;;;3.73;3.27;;;;;;;;;;5108609;28;20271;-51
2020/12/30 02:35:03;;;;;;;3.30;2.50;;;;;;;;;;5099982;28;20694;-52
2020/12/30 02:37:28;;;;;;;2.63;2.43;;;;;;;;;;5109298;28;20205;-51
2020/12/30 02:39:53;;;;;;;3.50;2.65;;;;;;;;;;5110947;28;20201;-51
2020/12/30 02:42:18;;;;;;;3.63;2.70;;;;;;;;;;5109978;28;20181;-51
2020/12/30 02:44:43;;;;;;;3.67;2.50;;;;;;;;;;5109987;28;20630;-50
2020/12/30 02:47:08;;;;;;;2.22;1.95;;;;;;;;;;5111421;28;20222;-51
2020/12/30 02:49:33;;;;;;;3.22;2.72;;;;;;;;;;5107950;28;20393;-51
2020/12/30 02:51:58;;;;;;;2.83;2.55;;;;;;;;;;5110034;27;20198;-51
2020/12/30 02:54:24;;;;;;;3.80;3.35;;;;;;;;;;5110751;28;20245;-51
2020/12/30 02:56:49;;;;;;;2.83;2.60;;;;;;;;;;5108455;28;20178;-50
2020/12/30 02:59:14;;;;;;;3.17;2.83;;;;;;;;;;5109292;28;20198;-51
2020/12/30 03:01:42;;;;;;;3.17;2.77;;;;;;;;;;5107477;28;20278;-50
2020/12/30 03:04:07;;;;;;;3.17;2.87;;;;;;;;;;5109361;28;20209;-50
2020/12/30 03:06:32;;;;;;;3.95;2.50;;;;;;;;;;5109354;28;20621;-51
2020/12/30 03:08:57;;;;;;;4.05;2.65;;;;;;;;;;5106177;28;20218;-50
2020/12/30 03:11:24;;;;;;;2.22;2.13;;;;;;;;;;5107857;27;20237;-51
2020/12/30 03:13:50;;;;;;;1.80;1.70;;;;;;;;;;5109478;28;20182;-51
2020/12/30 03:16:15;;;;;;;2.05;1.90;;;;;;;;;;5110148;28;20664;-53
2020/12/30 03:18:40;;;;;;;2.73;2.50;;;;;;;;;;5104885;28;20769;-50
2020/12/30 03:21:05;;;;;;;2.60;2.10;;;;;;;;;;5109872;28;20641;-51
2020/12/30 03:23:30;;;;;;;4.35;2.60;;;;;;;;;;5109365;28;20318;-51
2020/12/30 03:25:56;;;;;;;2.27;2.17;;;;;;;;;;5110076;28;20168;-51
2020/12/30 03:28:21;;;;;;;2.30;2.20;;;;;;;;;;5104707;28;20208;-50
2020/12/30 03:30:46;;;;;;;3.90;2.43;;;;;;;;;;5110452;28;20335;-50
2020/12/30 03:33:11;;;;;;;2.17;2.05;;;;;;;;;;5109418;28;20642;-51
2020/12/30 03:35:36;;;;;;;2.67;2.47;;;;;;;;;;5110088;28;20188;-51
2020/12/30 03:38:01;;;;;;;2.60;2.40;;;;;;;;;;5105636;28;20178;-50
2020/12/30 03:40:27;;;;;;;2.27;2.17;;;;;;;;;;5109791;28;20208;-51
2020/12/30 03:42:52;;;;;;;2.63;2.00;;;;;;;;;;5108797;28;20614;-50
2020/12/30 03:45:17;;;;;;;2.30;2.20;;;;;;;;;;5109935;28;20168;-50
2020/12/30 03:47:42;;;;;;;2.57;2.37;;;;;;;;;;5106837;28;20249;-50
2020/12/30 03:50:08;;;;;;;2.33;2.23;;;;;;;;;;5108317;28;20183;-49
2020/12/30 03:52:33;;;;;;;3.23;2.70;;;;;;;;;;5109200;28;20245;-51
2020/12/30 03:54:58;;;;;;;3.57;2.13;;;;;;;;;;5110007;28;20232;-50
2020/12/30 03:57:23;;;;;;;3.73;1.80;;;;;;;;;;5106067;28;20182;-50
2020/12/30 03:59:48;;;;;;;2.00;1.90;;;;;;;;;;5107163;28;20258;-51
2020/12/30 04:02:14;;;;;;;2.65;2.45;;;;;;;;;;5106339;28;20214;-51
2020/12/30 04:04:39;;;;;;;2.15;1.88;;;;;;;;;;5109276;28;20173;-51
2020/12/30 04:07:04;;;;;;;2.33;2.00;;;;;;;;;;5108944;28;20737;-51
2020/12/30 04:09:29;;;;;;;2.90;1.90;;;;;;;;;;5102152;28;20187;-50
2020/12/30 04:11:54;;;;;;;2.10;2.00;;;;;;;;;;5108640;28;20180;-50
2020/12/30 04:14:19;;;;;;;1.98;1.88;;;;;;;;;;5117346;28;20179;-50
2020/12/30 04:16:44;;;;;;;2.10;2.00;;;;;;;;;;5108646;28;20654;-51
2020/12/30 04:19:10;;;;;;;1.92;1.83;;;;;;;;;;5109355;28;20235;-51
2020/12/30 04:21:35;;;;;;;2.30;2.10;;;;;;;;;;5110519;28;20174;-51
2020/12/30 04:24:00;;;;;;;2.08;1.98;;;;;;;;;;5111318;27;20219;-50
2020/12/30 04:26:25;;;;;;;2.05;1.95;;;;;;;;;;5116479;27;20170;-51
2020/12/30 04:28:50;;;;;;;2.23;1.80;;;;;;;;;;5109151;28;20216;-51
2020/12/30 04:31:16;;;;;;;3.07;1.87;;;;;;;;;;5112401;28;20183;-51
2020/12/30 04:33:41;;;;;;;2.23;1.70;;;;;;;;;;5113559;28;20200;-50
2020/12/30 04:36:07;;;;;;;1.70;1.60;;;;;;;;;;5113778;27;20219;-51
2020/12/30 04:38:33;;;;;;;1.80;1.40;;;;;;;;;;5109157;28;20544;-51
2020/12/30 04:40:59;;;;;;;2.03;1.80;;;;;;;;;;5110275;28;20214;-50
2020/12/30 04:43:25;;;;;;;1.80;1.63;;;;;;;;;;5112623;28;20671;-51
2020/12/30 04:45:52;;;;;;;1.60;1.60;;;;;;;;;;5113269;28;20601;-50
2020/12/30 04:48:17;;;;;;;1.67;1.43;;;;;;;;;;5106804;27;20665;-50
2020/12/30 04:50:42;;;;;;;1.80;1.70;;;;;;;;;;5108767;28;20600;-51
2020/12/30 04:53:08;;;;;;;1.77;1.70;;;;;;;;;;5110375;28;20546;-50
2020/12/30 04:55:34;;;;;;;2.67;2.00;;;;;;;;;;5109627;27;20646;-51
2020/12/30 04:58:09;;;;;;;1.50;1.40;;;;;;;;;;5109918;28;20202;-51
2020/12/30 05:00:35;;;;;;;2.77;1.70;;;;;;;;;;5105973;27;20209;-50
2020/12/30 05:03:04;;;;;;;1.80;1.67;;;;;;;;;;5112377;28;20721;-50
2020/12/30 05:05:29;;;;;;;2.30;2.10;;;;;;;;;;5107701;27;21177;-50
2020/12/30 05:07:55;;;;;;;1.60;1.50;;;;;;;;;;5110222;28;20688;-49
2020/12/30 05:10:21;;;;;;;2.87;2.57;;;;;;;;;;5109226;28;20539;-50
2020/12/30 05:12:46;;;;;;;2.27;2.07;;;;;;;;;;5111764;28;20182;-51
2020/12/30 05:15:11;;;;;;;2.50;2.30;;;;;;;;;;5112070;28;20174;-49
2020/12/30 05:17:36;;;;;;;2.15;2.05;;;;;;;;;;5113711;27;20177;-51
2020/12/30 05:20:07;;;;;;;2.60;2.40;;;;;;;;;;5108068;28;20698;-51
2020/12/30 05:22:32;;;;;;;2.73;2.00;;;;;;;;;;5107057;28;20179;-50
2020/12/30 05:25:01;;;;;;;2.25;2.00;;;;;;;;;;5111633;28;20604;-50
2020/12/30 05:27:26;;;;;;;2.53;2.10;;;;;;;;;;5111116;28;20179;-50
2020/12/30 05:29:52;;;;;;;3.17;2.30;;;;;;;;;;5109561;28;20750;-50
2020/12/30 05:32:17;;;;;;;2.20;2.10;;;;;;;;;;5111404;28;20178;-50
2020/12/30 05:34:42;;;;;;;2.27;2.17;;;;;;;;;;5111696;28;20178;-50
2020/12/30 05:37:09;;;;;;;2.23;1.97;;;;;;;;;;5110962;27;20183;-51
2020/12/30 05:39:34;;;;;;;2.83;2.03;;;;;;;;;;5109505;28;20197;-51
2020/12/30 05:42:09;;;;;;;3.23;1.90;;;;;;;;;;5111203;28;20601;-51
2020/12/30 05:44:34;;;;;;;2.63;2.17;;;;;;;;;;5111132;28;20187;-50
2020/12/30 05:47:13;;;;;;;2.20;2.10;;;;;;;;;;5110822;27;20960;-50
2020/12/30 05:49:38;;;;;;;1.97;1.87;;;;;;;;;;5109741;28;20177;-51
2020/12/30 05:52:10;;;;;;;2.17;2.00;;;;;;;;;;5110504;28;20604;-51
2020/12/30 05:54:35;;;;;;;4.37;2.30;;;;;;;;;;5110670;28;20189;-50
2020/12/30 05:57:10;;;;;;;4.33;2.53;;;;;;;;;;5110594;27;20613;-50
2020/12/30 05:59:36;;;;;;;2.83;2.63;;;;;;;;;;5109934;28;20552;-51
2020/12/30 06:02:02;;;;;;;2.37;2.20;;;;;;;;;;5110766;28;20960;-50
2020/12/30 06:04:27;;;;;;;4.43;3.00;;;;;;;;;;5111186;28;20619;-49
2020/12/30 06:06:52;;;;;;;2.53;2.33;;;;;;;;;;5108745;28;20545;-50
2020/12/30 06:09:18;;;;;;;2.93;2.20;;;;;;;;;;5097945;28;20187;-51
2020/12/30 06:11:48;;;;;;;2.77;2.50;;;;;;;;;;5110432;28;20206;-48
2020/12/30 06:14:16;;;;;;;2.83;2.63;;;;;;;;;;5109964;28;20611;-49
2020/12/30 06:16:43;;;;;;;2.80;2.50;;;;;;;;;;5110562;28;20603;-50
2020/12/30 06:19:09;;;;;;;2.77;2.60;;;;;;;;;;5107788;28;20655;-50
2020/12/30 06:21:34;;;;;;;4.43;3.30;;;;;;;;;;5108751;27;20596;-49
2020/12/30 06:24:00;;;;;;;2.77;2.67;;;;;;;;;;5109855;28;20627;-49
2020/12/30 06:26:29;;;;;;;3.37;3.07;;;;;;;;;;5106691;28;20269;-49
2020/12/30 06:28:55;;;;;;;2.27;2.17;;;;;;;;;;5108140;28;20227;-49
2020/12/30 06:31:20;;;;;;;4.53;3.20;;;;;;;;;;5110923;27;20967;-49
2020/12/30 06:33:45;;;;;;;2.97;2.67;;;;;;;;;;5110300;28;20172;-50
2020/12/30 06:36:10;;;;;;;3.40;3.10;;;;;;;;;;5108055;28;20185;-49
2020/12/30 06:38:40;;;;;;;3.00;2.80;;;;;;;;;;5107543;28;20179;-50
2020/12/30 06:41:08;;;;;;;3.50;3.17;;;;;;;;;;5108166;28;20207;-50
2020/12/30 06:43:47;;;;;;;3.60;3.30;;;;;;;;;;5109833;28;20607;-50
2020/12/30 06:46:12;;;;;;;3.80;3.50;;;;;;;;;;5105478;28;20598;-50
2020/12/30 06:48:53;;;;;;;3.40;3.07;;;;;;;;;;5101106;28;20599;-49
2020/12/30 06:51:18;;;;;;;4.60;3.70;;;;;;;;;;5107517;28;20189;-50
2020/12/30 06:53:53;;;;;;;4.57;4.13;;;;;;;;;;5107243;27;21173;-49
2020/12/30 06:56:37;;;;;;;3.77;3.47;;;;;;;;;;5103173;28;20169;-50
2020/12/30 06:59:02;;;;;;;3.53;3.30;;;;;;;;;;5111518;27;20619;-49
2020/12/30 07:01:27;;;;;;;4.73;4.33;;;;;;;;;;5103839;28;20592;-50
2020/12/30 07:03:53;;;;;;;5.20;3.90;;;;;;;;;;5105485;28;20700;-49
2020/12/30 07:06:28;;;;;;;5.17;3.63;;;;;;;;;;5108871;27;20166;-50
2020/12/30 07:08:54;;;;;;;4.20;3.90;;;;;;;;;;5092942;27;20171;-49
2020/12/30 07:11:38;;;;;;;5.33;3.80;;;;;;;;;;5102576;28;20581;-49
2020/12/30 07:14:06;;;;;;;3.93;3.60;;;;;;;;;;5095522;27;20608;-49
2020/12/30 07:16:35;;;;;;;6.17;3.90;;;;;;;;;;5105891;28;20965;-49
2020/12/30 07:19:00;;;;;;;5.10;4.13;;;;;;;;;;5102629;27;20650;-50
2020/12/30 07:21:25;;;;;;;4.27;3.83;;;;;;;;;;5108243;28;21153;-50
2020/12/30 07:23:53;;;;;;;4.17;3.87;;;;;;;;;;5108838;28;20550;-50
2020/12/30 07:26:19;;;;;;;4.30;3.90;;;;;;;;;;5116249;27;20169;-49
2020/12/30 07:28:44;;;;;;;4.70;4.23;;;;;;;;;;5111569;27;20626;-49
2020/12/30 07:31:10;;;;;;;3.80;3.50;;;;;;;;;;5110023;28;20599;-49
2020/12/30 07:33:36;;;;;;;4.57;4.10;;;;;;;;;;5107596;28;20696;-49
2020/12/30 07:36:02;;;;;;;6.40;3.93;;;;;;;;;;5109900;28;20200;-50
2020/12/30 07:38:27;;;;;;;4.57;3.87;;;;;;;;;;5109253;28;20701;-49
2020/12/30 07:41:06;;;;;;;5.10;4.63;;;;;;;;;;5107377;28;20691;-50
2020/12/30 07:43:48;;;;;;;6.23;4.57;;;;;;;;;;5108325;28;20184;-49
2020/12/30 07:46:16;;;;;;;5.40;4.60;;;;;;;;;;5109052;28;20607;-50
2020/12/30 07:48:42;;;;;;;5.00;4.57;;;;;;;;;;5108711;28;20609;-49
2020/12/30 07:51:07;;;;;;;5.47;4.93;;;;;;;;;;5104686;28;20710;-50
2020/12/30 07:53:32;;;;;;;5.10;4.67;;;;;;;;;;5105664;28;20190;-50
2020/12/30 07:55:58;;;;;;;7.63;5.77;;;;;;;;;;5127189;27;20177;-49
2020/12/30 07:58:23;;;;;;;6.30;5.23;;;;;;;;;;5105093;27;20186;-50
2020/12/30 08:00:49;;;;;;;6.33;5.53;;;;;;;;;;5108141;27;20260;-50
2020/12/30 08:03:14;;;;;;;7.70;6.40;;;;;;;;;;5113845;27;20166;-50
2020/12/30 08:05:43;;;;;;;6.93;6.33;;;;;;;;;;5106073;27;20181;-50
2020/12/30 08:08:09;;;;;;;7.07;6.07;;;;;;;;;;5114494;27;20211;-50
2020/12/30 08:10:34;;;;;;;6.90;4.90;;;;;;;;;;5109785;27;20623;-50
2020/12/30 08:13:09;;;;;;;5.10;4.70;;;;;;;;;;5102523;27;20287;-50
2020/12/30 08:15:34;;;;;;;6.80;5.27;;;;;;;;;;5113098;27;20651;-50
2020/12/30 08:17:59;;;;;;;5.30;4.80;;;;;;;;;;5106518;28;20601;-50
2020/12/30 08:20:25;;;;;;;7.37;5.60;;;;;;;;;;5110138;27;20214;-50
2020/12/30 08:22:55;;;;;;;6.72;5.30;;;;;;;;;;5122163;27;20234;-51
2020/12/30 08:25:20;;;;;;;7.67;5.03;;;;;;;;;;5108910;27;20199;-50
2020/12/30 08:27:47;;;;;;;6.38;5.50;;;;;;;;;;5117101;27;20675;-51
2020/12/30 08:30:12;;;;;;;6.80;5.57;;;;;;;;;;5107859;28;21102;-49
2020/12/30 08:32:55;;;;;;;7.30;5.13;;;;;;;;;;5110991;28;20633;-49
2020/12/30 08:35:43;;;;;;;7.60;5.13;;;;;;;;;;5113699;28;20247;-50
2020/12/30 08:38:15;;;;;;;5.60;5.10;;;;;;;;;;5103274;28;20631;-49
2020/12/30 08:40:41;;;;;;;6.50;4.90;;;;;;;;;;5107846;28;20734;-49
2020/12/30 08:43:30;;;;;;;7.20;5.43;;;;;;;;;;5107460;27;21236;-50
2020/12/30 08:46:05;;;;;;;7.13;5.17;;;;;;;;;;5112214;27;20192;-49
2020/12/30 08:48:31;;;;;;;7.27;5.37;;;;;;;;;;5110102;28;20612;-49
2020/12/30 08:50:56;;;;;;;6.30;5.70;;;;;;;;;;5109527;27;20610;-48
2020/12/30 08:53:34;;;;;;;6.22;5.07;;;;;;;;;;5114790;27;20191;-49
2020/12/30 08:56:00;;;;;;;7.87;5.50;;;;;;;;;;5109407;27;20201;-49
2020/12/30 08:58:25;;;;;;;7.20;5.43;;;;;;;;;;5107636;28;20664;-49
2020/12/30 09:00:50;;;;;;;7.07;6.23;;;;;;;;;;5105253;28;20199;-49
2020/12/30 09:03:16;;;;;;;8.10;6.93;;;;;;;;;;5106203;28;20265;-49
2020/12/30 09:05:49;;;;;;;12.23;6.10;;;;;;;;;;5109434;28;20215;-49
2020/12/30 09:08:15;;;;;;;8.40;5.80;;;;;;;;;;5108244;28;20703;-50
2020/12/30 09:10:40;;;;;;;8.83;6.70;;;;;;;;;;5104827;28;20628;-49
2020/12/30 09:13:15;;;;;;;7.90;6.70;;;;;;;;;;5108364;28;20604;-49
2020/12/30 09:15:41;;;;;;;8.43;6.20;;;;;;;;;;5100845;27;20209;-49
2020/12/30 09:18:07;;;;;;;7.27;6.57;;;;;;;;;;5098648;27;21282;-49
2020/12/30 09:20:32;;;;;;;7.87;6.97;;;;;;;;;;5095706;27;20255;-49
2020/12/30 09:23:01;;;;;;;7.60;6.90;;;;;;;;;;5106590;27;20183;-49
2020/12/30 09:25:28;;;;;;;8.23;7.33;;;;;;;;;;5110454;28;20201;-50
2020/12/30 09:27:53;;;;;;;8.80;7.90;;;;;;;;;;5109485;28;20741;-49
2020/12/30 09:30:19;;;;;;;7.47;6.77;;;;;;;;;;5108507;28;20629;-49
2020/12/30 09:32:45;;;;;;;9.00;7.50;;;;;;;;;;5107406;28;20179;-50
2020/12/30 09:35:11;;;;;;;8.47;7.20;;;;;;;;;;5110369;28;20650;-49
2020/12/30 09:37:37;;;;;;;7.40;6.70;;;;;;;;;;5111532;28;20665;-48
2020/12/30 09:40:12;;;;;;;8.30;7.50;;;;;;;;;;5109807;28;20732;-50
2020/12/30 09:42:38;;;;;;;11.47;7.43;;;;;;;;;;5111419;28;20502;-49
2020/12/30 09:45:05;;;;;;;8.73;7.60;;;;;;;;;;5111344;28;20614;-49
2020/12/30 09:47:30;;;;;;;8.23;6.67;;;;;;;;;;5112084;28;20576;-49
2020/12/30 09:49:55;;;;;;;9.30;6.63;;;;;;;;;;5107652;28;20609;-48
2020/12/30 09:52:20;;;;;;;9.10;7.43;;;;;;;;;;5111818;28;20254;-49
2020/12/30 09:54:46;;;;;;;7.80;7.07;;;;;;;;;;5110891;28;20188;-49
2020/12/30 09:57:11;;;;;;;12.38;7.47;;;;;;;;;;5111681;28;20229;-50
2020/12/30 09:59:36;;;;;;;10.15;7.82;;;;;;;;;;5108863;28;20874;-49
2020/12/30 10:02:01;;;;;;;9.05;7.65;;;;;;;;;;5111292;27;20175;-50
2020/12/30 10:04:26;;;;;;;7.45;6.75;;;;;;;;;;5111556;28;20170;-51
2020/12/30 10:06:51;;;;;;;8.98;7.32;;;;;;;;;;5110361;28;20206;-50
2020/12/30 10:09:16;;;;;;;12.55;7.65;;;;;;;;;;5108902;28;20182;-50
2020/12/30 10:11:41;;;;;;;10.17;8.00;;;;;;;;;;5109473;28;20182;-49
2020/12/30 10:14:07;;;;;;;10.95;8.00;;;;;;;;;;5111034;28;20636;-49
2020/12/30 10:16:32;;;;;;;9.60;7.50;;;;;;;;;;5111537;28;20182;-50
2020/12/30 10:18:58;;;;;;;11.30;7.67;;;;;;;;;;5110070;28;20591;-49
2020/12/30 10:21:29;;;;;;;12.40;7.93;;;;;;;;;;5109554;28;20249;-49
2020/12/30 10:23:55;;;;;;;9.10;7.23;;;;;;;;;;5110443;28;20633;-49
2020/12/30 10:26:20;;;;;;;9.17;7.83;;;;;;;;;;5111389;28;20673;-50
2020/12/30 10:28:45;;;;;;;8.23;7.43;;;;;;;;;;5110092;28;20184;-50
2020/12/30 10:31:13;;;;;;;10.10;7.47;;;;;;;;;;5108415;28;20185;-49
2020/12/30 10:33:39;;;;;;;10.03;8.37;;;;;;;;;;5109366;28;20178;-49
2020/12/30 10:36:07;;;;;;;10.40;8.20;;;;;;;;;;5110216;28;20618;-49
2020/12/30 10:38:33;;;;;;;8.67;7.57;;;;;;;;;;5111085;28;20239;-49
2020/12/30 10:40:58;;;;;;;11.00;8.43;;;;;;;;;;5107816;28;21220;-49
2020/12/30 10:43:23;;;;;;;9.73;8.03;;;;;;;;;;5110009;28;20418;-49
2020/12/30 10:45:48;;;;;;;14.02;8.80;;;;;;;;;;5104905;28;20367;-50
2020/12/30 10:48:13;;;;;;;9.00;7.10;;;;;;;;;;5090508;28;20171;-49
2020/12/30 10:50:39;;;;;;;8.90;7.30;;;;;;;;;;5089424;28;20176;-50
2020/12/30 10:53:04;;;;;;;9.35;7.75;;;;;;;;;;5090310;28;20186;-49
2020/12/30 10:55:29;;;;;;;8.77;7.88;;;;;;;;;;5103407;27;20165;-50
2020/12/30 10:57:54;;;;;;;9.98;7.95;;;;;;;;;;5108499;28;20210;-49
2020/12/30 11:00:19;;;;;;;10.73;8.47;;;;;;;;;;5108811;28;20197;-49
2020/12/30 11:02:44;;;;;;;9.77;8.52;;;;;;;;;;5092411;27;20204;-49
2020/12/30 11:05:09;;;;;;;10.77;8.10;;;;;;;;;;5096843;28;20174;-50
2020/12/30 11:07:35;;;;;;;9.27;8.17;;;;;;;;;;5109965;28;20173;-50
2020/12/30 11:10:00;;;;;;;10.38;8.60;;;;;;;;;;5108596;28;20617;-50
2020/12/30 11:12:25;;;;;;;9.93;8.53;;;;;;;;;;5109788;28;20916;-49
2020/12/30 11:14:50;;;;;;;9.13;8.27;;;;;;;;;;5109090;28;20196;-49
2020/12/30 11:17:15;;;;;;;9.32;7.35;;;;;;;;;;5109712;28;20186;-49
2020/12/30 11:19:40;;;;;;;9.80;8.73;;;;;;;;;;5114563;27;20255;-49
2020/12/30 11:22:06;;;;;;;11.85;8.40;;;;;;;;;;5114330;27;20318;-49
2020/12/30 11:24:32;;;;;;;10.17;8.23;;;;;;;;;;5109416;28;20234;-49
2020/12/30 11:26:57;;;;;;;10.80;9.32;;;;;;;;;;5104638;28;20639;-50
2020/12/30 11:29:22;;;;;;;9.53;8.63;;;;;;;;;;5107046;28;20216;-50
2020/12/30 11:31:47;;;;;;;9.10;8.25;;;;;;;;;;5103200;28;20178;-49
2020/12/30 11:34:12;;;;;;;10.27;9.27;;;;;;;;;;5109452;28;20573;-50
2020/12/30 11:36:37;;;;;;;9.90;8.97;;;;;;;;;;5109023;28;20186;-50
2020/12/30 11:39:03;;;;;;;9.68;8.70;;;;;;;;;;5109014;28;20172;-50
2020/12/30 11:41:28;;;;;;;10.03;8.97;;;;;;;;;;5104662;28;20181;-50
2020/12/30 11:43:53;;;;;;;10.33;8.50;;;;;;;;;;5109607;28;20685;-49
2020/12/30 11:46:19;;;;;;;11.07;8.73;;;;;;;;;;5109448;28;20253;-49
2020/12/30 11:48:44;;;;;;;10.30;8.93;;;;;;;;;;5108137;28;20188;-50
2020/12/30 11:51:09;;;;;;;10.73;8.90;;;;;;;;;;5107033;28;21160;-49
2020/12/30 11:53:35;;;;;;;10.50;8.50;;;;;;;;;;5107754;28;20196;-50
2020/12/30 11:56:01;;;;;;;12.55;9.52;;;;;;;;;;5108863;28;20489;-49
2020/12/30 11:58:27;;;;;;;10.57;8.80;;;;;;;;;;5103825;28;20182;-50
2020/12/30 12:00:52;;;;;;;9.93;8.77;;;;;;;;;;5103711;28;20645;-50
2020/12/30 12:03:17;;;;;;;8.85;7.90;;;;;;;;;;5109488;28;20518;-51
2020/12/30 12:05:42;;;;;;;10.38;8.40;;;;;;;;;;5109959;28;20174;-50
2020/12/30 12:08:07;;;;;;;8.60;7.80;;;;;;;;;;5103889;28;20203;-51
2020/12/30 12:10:32;;;;;;;7.82;7.13;;;;;;;;;;5096116;28;20199;-50
2020/12/30 12:12:59;;;;;;;9.60;8.60;;;;;;;;;;5119558;28;20277;-51
2020/12/30 12:15:25;;;;;;;10.57;8.10;;;;;;;;;;5103596;28;20197;-51
2020/12/30 12:17:50;;;;;;;9.23;8.10;;;;;;;;;;5104450;28;20670;-50
2020/12/30 12:20:15;;;;;;;14.52;9.95;;;;;;;;;;5107064;28;20226;-51
2020/12/30 12:22:41;;;;;;;11.97;9.17;;;;;;;;;;5105815;28;20170;-51
2020/12/30 12:25:06;;;;;;;9.87;8.87;;;;;;;;;;5110556;28;20193;-48
2020/12/30 12:27:31;;;;;;;9.30;8.40;;;;;;;;;;5111863;28;20702;-48
2020/12/30 12:29:56;;;;;;;11.25;9.18;;;;;;;;;;5107987;28;20537;-48
2020/12/30 12:32:23;;;;;;;10.30;9.20;;;;;;;;;;5102627;28;20634;-49
2020/12/30 12:34:49;;;;;;;10.60;9.50;;;;;;;;;;5105021;28;20173;-49
2020/12/30 12:37:15;;;;;;;9.77;8.63;;;;;;;;;;5107048;28;20599;-49
2020/12/30 12:39:41;;;;;;;10.83;9.67;;;;;;;;;;5102252;28;20685;-50
2020/12/30 12:42:06;;;;;;;11.77;9.67;;;;;;;;;;5105476;28;20638;-51
2020/12/30 12:44:31;;;;;;;12.10;9.83;;;;;;;;;;5106921;28;20300;-51
2020/12/30 12:46:56;;;;;;;9.70;8.80;;;;;;;;;;5107571;27;20326;-49
2020/12/30 12:49:22;;;;;;;11.50;9.70;;;;;;;;;;5113749;27;20185;-52
2020/12/30 12:51:48;;;;;;;10.20;9.10;;;;;;;;;;5093763;27;20182;-50
2020/12/30 12:54:14;;;;;;;10.73;9.37;;;;;;;;;;5105580;27;20183;-51
2020/12/30 12:56:39;;;;;;;11.70;9.53;;;;;;;;;;5112319;27;20613;-49
2020/12/30 12:59:04;;;;;;;10.07;9.17;;;;;;;;;;5108771;27;20183;-50
2020/12/30 13:01:29;;;;;;;10.37;9.27;;;;;;;;;;5113786;27;20356;-50
2020/12/30 13:03:55;;;;;;;11.75;9.75;;;;;;;;;;5106054;27;20180;-50
2020/12/30 13:06:31;;;;;;;13.33;8.90;;;;;;;;;;5104309;27;20548;-51
2020/12/30 13:08:56;;;;;;;9.70;8.37;;;;;;;;;;5104936;28;20651;-50
2020/12/30 13:11:22;;;;;;;10.00;8.80;;;;;;;;;;5101660;27;20622;-50
2020/12/30 13:13:47;;;;;;;10.83;9.03;;;;;;;;;;5112520;27;20181;-51
2020/12/30 13:16:12;;;;;;;9.03;8.13;;;;;;;;;;5107779;27;20272;-50
2020/12/30 13:18:38;;;;;;;9.90;8.10;;;;;;;;;;5114974;27;20240;-50
2020/12/30 13:21:03;;;;;;;9.30;8.40;;;;;;;;;;5108637;27;21018;-50
2020/12/30 13:23:28;;;;;;;9.27;8.10;;;;;;;;;;5106461;27;20173;-50
2020/12/30 13:25:54;;;;;;;10.20;9.13;;;;;;;;;;5105501;28;20174;-50
2020/12/30 13:28:19;;;;;;;9.70;8.70;;;;;;;;;;5105044;27;20710;-50
2020/12/30 13:30:44;;;;;;;10.60;9.38;;;;;;;;;;5106743;28;20634;-50
2020/12/30 13:33:09;;;;;;;10.98;9.00;;;;;;;;;;5105023;28;20206;-50
2020/12/30 13:35:34;;;;;;;10.73;8.50;;;;;;;;;;5106383;28;20182;-50
2020/12/30 13:38:00;;;;;;;10.88;8.35;;;;;;;;;;5106492;28;20211;-49
2020/12/30 13:40:25;;;;;;;11.03;9.80;;;;;;;;;;5107628;28;20198;-50
2020/12/30 13:42:50;;;;;;;9.52;8.52;;;;;;;;;;5107822;28;20259;-50
2020/12/30 13:45:15;;;;;;;11.18;9.20;;;;;;;;;;5107778;28;20706;-49
2020/12/30 13:47:40;;;;;;;10.47;9.37;;;;;;;;;;5101866;28;20181;-51
2020/12/30 13:50:05;;;;;;;10.68;9.43;;;;;;;;;;5107737;28;20182;-50
2020/12/30 13:52:30;;;;;;;10.02;8.63;;;;;;;;;;5107791;28;20574;-50
2020/12/30 13:54:56;;;;;;;11.98;10.15;;;;;;;;;;5106921;28;20180;-50
2020/12/30 13:57:21;;;;;;;13.40;11.65;;;;;;;;;;5101490;28;20358;-50
2020/12/30 13:59:46;;;;;;;10.57;9.30;;;;;;;;;;5105959;28;20733;-50
2020/12/30 14:02:11;;;;;;;12.37;10.27;;;;;;;;;;5105995;28;20181;-50
2020/12/30 14:04:37;;;;;;;12.00;10.73;;;;;;;;;;5107574;28;20178;-49
2020/12/30 14:07:02;;;;;;;11.10;9.90;;;;;;;;;;5100690;27;20211;-50
2020/12/30 14:09:27;;;;;;;13.53;11.13;;;;;;;;;;5098562;28;20564;-50
2020/12/30 14:11:52;;;;;;;12.83;9.80;;;;;;;;;;5107280;28;20241;-50
2020/12/30 14:14:17;;;;;;;11.50;10.30;;;;;;;;;;5107960;28;20643;-50
2020/12/30 14:16:43;;;;;;;13.57;10.20;;;;;;;;;;5102690;28;20692;-50
2020/12/30 14:19:08;;;;;;;13.63;11.30;;;;;;;;;;5107319;28;20549;-50
2020/12/30 14:21:34;;;;;;;13.70;11.40;;;;;;;;;;5106823;28;20599;-50
2020/12/30 14:23:59;;;;;;;11.70;10.50;;;;;;;;;;5106553;27;20285;-50
2020/12/30 14:26:24;;;;;;;13.73;10.77;;;;;;;;;;5105887;28;20174;-50
2020/12/30 14:28:49;;;;;;;14.50;10.80;;;;;;;;;;5104818;28;20185;-50
2020/12/30 14:31:15;;;;;;;11.50;10.23;;;;;;;;;;5107486;28;20177;-50
2020/12/30 14:33:40;;;;;;;11.03;9.93;;;;;;;;;;5107317;27;20195;-50